Time;durP1;ratioP1;P1;durP2;ratioP2;P2;SDS_P1;SDS_P2;PMS_P1;PMS_P2;Temp;Humidity;BMP_temperature;BMP_pressure;BME280_temperature;BME280_humidity;BME280_pressure;Samples;Min_cycle;Max_cycle;Signal;HPM_P1;HPM_P2
2022/10/08 00:01:46;;;;;;;10.40;3.15;;;;;;;;;;4955269;28;20073;-88
2022/10/08 00:04:12;;;;;;;14.98;3.97;;;;;;;;;;4963141;28;20030;-88
2022/10/08 00:06:38;;;;;;;19.38;4.18;;;;;;;;;;4951406;28;20065;-88
2022/10/08 00:09:10;;;;;;;12.55;3.20;;;;;;;;;;4966163;28;20062;-88
2022/10/08 00:11:37;;;;;;;9.75;3.00;;;;;;;;;;4970843;28;20544;-88
2022/10/08 00:14:04;;;;;;;11.80;2.80;;;;;;;;;;4985712;28;20458;-88
2022/10/08 00:16:31;;;;;;;12.00;2.67;;;;;;;;;;4975013;28;20490;-88
2022/10/08 00:19:00;;;;;;;10.38;2.55;;;;;;;;;;4968078;28;20031;-88
2022/10/08 00:21:28;;;;;;;10.73;2.63;;;;;;;;;;4970771;28;20025;-88
2022/10/08 00:23:55;;;;;;;7.55;3.00;;;;;;;;;;4968605;28;20036;-87
2022/10/08 00:26:23;;;;;;;8.55;3.30;;;;;;;;;;4971463;28;20026;-87
2022/10/08 00:28:49;;;;;;;12.93;3.05;;;;;;;;;;4971862;28;20030;-87
2022/10/08 00:31:18;;;;;;;10.75;2.78;;;;;;;;;;4986536;28;20022;-87
2022/10/08 00:33:44;;;;;;;12.38;2.42;;;;;;;;;;4966012;28;20034;-88
2022/10/08 00:36:11;;;;;;;15.07;4.22;;;;;;;;;;4978094;28;20106;-87
2022/10/08 00:38:44;;;;;;;18.42;3.38;;;;;;;;;;4968899;28;20259;-87
2022/10/08 00:41:20;;;;;;;10.98;2.83;;;;;;;;;;4956451;28;20054;-87
2022/10/08 00:43:48;;;;;;;13.90;3.20;;;;;;;;;;4975937;28;20085;-87
2022/10/08 00:46:14;;;;;;;10.57;2.65;;;;;;;;;;4986508;28;20053;-88
2022/10/08 00:48:40;;;;;;;7.25;2.58;;;;;;;;;;4984717;28;20655;-87
2022/10/08 00:51:06;;;;;;;9.95;2.58;;;;;;;;;;4975121;28;20031;-87
2022/10/08 00:53:46;;;;;;;9.95;2.38;;;;;;;;;;4970613;28;20100;-87
2022/10/08 00:56:12;;;;;;;9.60;2.42;;;;;;;;;;4952852;28;20030;-87
2022/10/08 00:58:38;;;;;;;9.57;2.10;;;;;;;;;;4972213;28;20141;-86
2022/10/08 01:01:04;;;;;;;11.30;2.55;;;;;;;;;;4970447;28;20494;-87
2022/10/08 01:03:30;;;;;;;9.23;3.03;;;;;;;;;;4969064;28;20101;-87
2022/10/08 01:05:59;;;;;;;6.30;2.10;;;;;;;;;;4965279;28;20023;-87
2022/10/08 01:08:31;;;;;;;8.20;2.42;;;;;;;;;;4969845;28;20428;-87
2022/10/08 01:11:11;;;;;;;2.95;1.70;;;;;;;;;;4982078;28;20482;-87
2022/10/08 01:13:43;;;;;;;15.70;2.22;;;;;;;;;;4971754;28;20473;-86
2022/10/08 01:16:21;;;;;;;14.10;2.00;;;;;;;;;;4973245;28;20031;-86
2022/10/08 01:19:02;;;;;;;16.45;2.55;;;;;;;;;;4972227;28;20441;-87
2022/10/08 01:21:42;;;;;;;9.55;2.70;;;;;;;;;;4985347;28;20117;-87
2022/10/08 01:27:35;;;;;;;6.18;2.40;;;;;;;;;;4913177;29;20050;-87
2022/10/08 01:30:03;;;;;;;6.43;1.80;;;;;;;;;;4983164;28;20062;-87
2022/10/08 01:32:33;;;;;;;15.77;2.45;;;;;;;;;;4972028;28;20035;-86
2022/10/08 01:35:02;;;;;;;13.25;2.60;;;;;;;;;;4969162;28;20037;-87
2022/10/08 01:37:30;;;;;;;6.15;2.05;;;;;;;;;;4984929;28;20023;-86
2022/10/08 01:39:57;;;;;;;4.38;1.92;;;;;;;;;;4970372;28;20038;-87
2022/10/08 01:42:25;;;;;;;5.05;1.80;;;;;;;;;;4980151;28;20034;-87
2022/10/08 01:44:53;;;;;;;6.60;1.85;;;;;;;;;;4967885;28;20018;-86
2022/10/08 01:47:26;;;;;;;10.80;2.88;;;;;;;;;;4987079;28;20466;-86
2022/10/08 01:49:58;;;;;;;4.90;1.80;;;;;;;;;;4987950;28;20026;-86
2022/10/08 01:52:27;;;;;;;6.18;2.10;;;;;;;;;;4967012;28;20065;-87
2022/10/08 01:54:56;;;;;;;9.30;1.65;;;;;;;;;;4985618;28;20487;-86
2022/10/08 01:57:23;;;;;;;7.25;1.75;;;;;;;;;;4967786;28;20031;-86
2022/10/08 01:59:55;;;;;;;11.48;2.10;;;;;;;;;;4973934;28;20501;-86
2022/10/08 02:02:22;;;;;;;9.15;1.95;;;;;;;;;;4976646;28;20566;-86
2022/10/08 02:04:50;;;;;;;8.27;1.70;;;;;;;;;;4973689;28;20030;-86
2022/10/08 02:07:16;;;;;;;12.85;2.38;;;;;;;;;;4969870;28;20035;-86
2022/10/08 02:09:44;;;;;;;13.63;1.60;;;;;;;;;;4970590;28;20030;-87
2022/10/08 02:12:11;;;;;;;11.35;3.30;;;;;;;;;;4970680;28;20037;-86
2022/10/08 02:14:42;;;;;;;10.80;2.20;;;;;;;;;;4977346;28;20027;-87
2022/10/08 02:17:16;;;;;;;10.43;2.50;;;;;;;;;;4986096;28;20040;-86
2022/10/08 02:19:51;;;;;;;4.70;2.10;;;;;;;;;;4981123;28;20622;-86
2022/10/08 02:22:19;;;;;;;10.68;2.55;;;;;;;;;;4969089;28;20038;-86
2022/10/08 02:24:49;;;;;;;6.43;2.42;;;;;;;;;;4983053;28;20025;-87
2022/10/08 02:27:16;;;;;;;6.55;1.90;;;;;;;;;;4987627;28;20085;-86
2022/10/08 02:29:45;;;;;;;6.55;2.03;;;;;;;;;;4975408;28;20038;-86
2022/10/08 02:32:11;;;;;;;5.85;3.10;;;;;;;;;;4971044;28;20524;-86
2022/10/08 02:34:39;;;;;;;11.63;1.70;;;;;;;;;;4983370;28;20386;-86
2022/10/08 02:37:05;;;;;;;7.72;2.20;;;;;;;;;;4986346;28;20049;-86
2022/10/08 02:39:33;;;;;;;13.15;2.42;;;;;;;;;;4977127;28;20038;-86
2022/10/08 02:42:02;;;;;;;2.33;1.08;;;;;;;;;;4971065;28;20030;-86
2022/10/08 02:44:40;;;;;;;11.45;2.30;;;;;;;;;;4973438;28;20026;-86
2022/10/08 02:47:09;;;;;;;11.15;1.98;;;;;;;;;;4975784;28;20482;-86
2022/10/08 02:49:38;;;;;;;4.53;1.83;;;;;;;;;;4969910;28;20030;-86
2022/10/08 02:52:07;;;;;;;12.18;2.08;;;;;;;;;;4973606;28;20481;-86
2022/10/08 02:54:35;;;;;;;7.45;1.70;;;;;;;;;;4990398;28;20416;-86
2022/10/08 02:57:08;;;;;;;15.43;2.35;;;;;;;;;;4987896;28;20415;-86
2022/10/08 02:59:35;;;;;;;10.90;2.00;;;;;;;;;;4987487;28;21416;-86
2022/10/08 03:02:02;;;;;;;7.82;2.08;;;;;;;;;;4975611;28;20040;-86
2022/10/08 03:04:33;;;;;;;11.07;2.45;;;;;;;;;;4972427;28;20022;-86
2022/10/08 03:06:59;;;;;;;13.27;2.42;;;;;;;;;;4972180;28;20458;-86
2022/10/08 03:09:28;;;;;;;5.82;1.80;;;;;;;;;;4971517;28;20502;-86
2022/10/08 03:11:54;;;;;;;15.50;1.92;;;;;;;;;;4986977;28;20519;-86
2022/10/08 03:14:22;;;;;;;10.63;2.33;;;;;;;;;;4971417;28;20045;-86
2022/10/08 03:16:48;;;;;;;22.05;2.40;;;;;;;;;;4972203;28;20034;-86
2022/10/08 03:19:15;;;;;;;7.75;2.25;;;;;;;;;;4955633;28;20589;-86
2022/10/08 03:21:42;;;;;;;16.58;2.03;;;;;;;;;;4971763;28;20026;-86
2022/10/08 03:24:09;;;;;;;7.45;2.25;;;;;;;;;;4956110;28;20240;-86
2022/10/08 03:26:36;;;;;;;12.43;2.90;;;;;;;;;;4972161;28;20064;-86
2022/10/08 03:29:02;;;;;;;14.00;2.45;;;;;;;;;;4971125;28;20038;-86
2022/10/08 03:31:28;;;;;;;10.75;2.70;;;;;;;;;;4969284;28;20085;-86
2022/10/08 03:33:54;;;;;;;7.15;2.40;;;;;;;;;;4969303;28;20034;-87
2022/10/08 03:36:21;;;;;;;5.40;2.45;;;;;;;;;;4986902;28;20039;-86
2022/10/08 03:38:47;;;;;;;10.50;2.70;;;;;;;;;;4970209;28;20031;-86
2022/10/08 03:41:13;;;;;;;10.85;2.47;;;;;;;;;;4970522;28;20030;-86
2022/10/08 03:43:39;;;;;;;8.77;2.63;;;;;;;;;;4973258;28;20556;-86
2022/10/08 03:46:06;;;;;;;13.18;2.72;;;;;;;;;;4968680;28;20027;-84
2022/10/08 03:48:33;;;;;;;12.60;2.80;;;;;;;;;;4974792;28;20041;-86
2022/10/08 03:51:00;;;;;;;10.27;2.33;;;;;;;;;;4971566;28;20122;-86
2022/10/08 03:53:26;;;;;;;7.18;2.42;;;;;;;;;;4977010;28;20014;-86
2022/10/08 03:55:53;;;;;;;10.70;2.47;;;;;;;;;;4972672;28;20073;-86
2022/10/08 03:58:19;;;;;;;9.07;2.67;;;;;;;;;;4969379;28;20034;-86
2022/10/08 04:00:56;;;;;;;14.35;3.50;;;;;;;;;;4969307;28;20038;-86
2022/10/08 04:03:22;;;;;;;7.90;2.70;;;;;;;;;;4962214;28;20055;-86
2022/10/08 04:05:48;;;;;;;12.00;3.00;;;;;;;;;;4972399;28;20509;-86
2022/10/08 04:08:14;;;;;;;19.08;3.03;;;;;;;;;;4961188;28;20034;-85
2022/10/08 04:10:40;;;;;;;14.32;3.38;;;;;;;;;;4967190;28;20034;-86
2022/10/08 04:13:06;;;;;;;13.60;2.80;;;;;;;;;;4972206;28;20529;-85
2022/10/08 04:15:32;;;;;;;13.77;3.35;;;;;;;;;;4975024;28;20042;-86
2022/10/08 04:17:58;;;;;;;11.60;2.80;;;;;;;;;;4971016;28;20516;-86
2022/10/08 04:20:24;;;;;;;18.17;3.22;;;;;;;;;;4989122;28;20030;-86
2022/10/08 04:22:51;;;;;;;12.77;3.25;;;;;;;;;;4972983;28;20046;-86
2022/10/08 04:25:17;;;;;;;10.95;2.75;;;;;;;;;;4972109;28;20062;-86
2022/10/08 04:27:43;;;;;;;10.15;2.75;;;;;;;;;;4953817;28;20042;-86
2022/10/08 04:30:09;;;;;;;13.35;2.95;;;;;;;;;;4954171;28;20046;-86
2022/10/08 04:32:35;;;;;;;16.48;3.20;;;;;;;;;;4969069;28;20066;-86
2022/10/08 04:35:01;;;;;;;10.77;2.90;;;;;;;;;;4981825;28;20042;-86
2022/10/08 04:37:27;;;;;;;13.98;3.35;;;;;;;;;;4953148;28;20027;-86
2022/10/08 04:39:53;;;;;;;15.43;3.10;;;;;;;;;;4968758;28;20064;-86
2022/10/08 04:42:19;;;;;;;8.57;2.05;;;;;;;;;;4948259;28;20495;-86
2022/10/08 04:44:45;;;;;;;13.20;2.78;;;;;;;;;;4953416;28;20066;-86
2022/10/08 04:47:11;;;;;;;15.55;2.90;;;;;;;;;;4954291;28;20031;-86
2022/10/08 04:49:37;;;;;;;10.45;2.80;;;;;;;;;;4954404;28;20038;-85
2022/10/08 04:52:03;;;;;;;11.98;2.50;;;;;;;;;;4968906;28;20034;-86
2022/10/08 04:54:29;;;;;;;7.57;2.15;;;;;;;;;;4968396;28;20142;-85
2022/10/08 04:56:55;;;;;;;11.25;2.65;;;;;;;;;;4970106;28;20177;-86
2022/10/08 04:59:21;;;;;;;14.52;2.63;;;;;;;;;;4954324;28;20038;-85
2022/10/08 05:01:47;;;;;;;18.58;2.90;;;;;;;;;;4954658;28;20101;-86
2022/10/08 05:04:13;;;;;;;14.43;2.50;;;;;;;;;;4956056;28;20062;-86
2022/10/08 05:06:39;;;;;;;12.02;2.70;;;;;;;;;;4970937;28;20026;-86
2022/10/08 05:09:05;;;;;;;14.02;2.88;;;;;;;;;;4983655;28;20030;-86
2022/10/08 05:11:31;;;;;;;10.65;2.85;;;;;;;;;;4962535;28;20078;-86
2022/10/08 05:13:58;;;;;;;12.35;2.40;;;;;;;;;;4968536;28;20041;-84
2022/10/08 05:16:24;;;;;;;19.45;3.15;;;;;;;;;;4968658;28;20042;-86
2022/10/08 05:18:50;;;;;;;12.85;3.47;;;;;;;;;;4967900;28;20034;-86
2022/10/08 05:21:18;;;;;;;8.23;3.10;;;;;;;;;;4973360;28;20588;-86
2022/10/08 05:23:45;;;;;;;12.60;2.78;;;;;;;;;;4985595;28;20030;-86
2022/10/08 05:26:12;;;;;;;14.48;2.72;;;;;;;;;;4980865;28;20490;-86
2022/10/08 05:28:38;;;;;;;18.75;3.22;;;;;;;;;;4969507;28;20080;-86
2022/10/08 05:31:04;;;;;;;20.58;3.40;;;;;;;;;;4955671;28;20027;-86
2022/10/08 05:33:36;;;;;;;13.48;2.78;;;;;;;;;;4981600;28;20058;-85
2022/10/08 05:36:03;;;;;;;11.13;2.63;;;;;;;;;;4957928;28;20038;-86
2022/10/08 05:38:30;;;;;;;14.27;2.80;;;;;;;;;;4984319;28;20101;-86
2022/10/08 05:41:06;;;;;;;10.95;2.65;;;;;;;;;;4974372;28;20038;-86
2022/10/08 05:43:32;;;;;;;12.23;2.67;;;;;;;;;;4982450;28;20479;-86
2022/10/08 05:45:58;;;;;;;17.13;2.42;;;;;;;;;;4954611;28;20030;-86
2022/10/08 05:48:24;;;;;;;11.00;2.63;;;;;;;;;;4970449;28;20022;-86
2022/10/08 05:50:50;;;;;;;9.82;2.60;;;;;;;;;;4972534;28;20027;-86
2022/10/08 05:53:16;;;;;;;10.30;4.57;;;;;;;;;;4951437;28;20033;-86
2022/10/08 05:55:42;;;;;;;7.43;2.80;;;;;;;;;;4967443;28;20058;-85
2022/10/08 05:58:08;;;;;;;12.68;2.90;;;;;;;;;;4968743;28;20296;-86
2022/10/08 06:00:35;;;;;;;15.82;2.63;;;;;;;;;;4955803;28;20038;-86
2022/10/08 06:03:01;;;;;;;14.80;2.63;;;;;;;;;;4968775;28;20026;-86
2022/10/08 06:05:27;;;;;;;8.70;2.55;;;;;;;;;;4986231;28;20029;-86
2022/10/08 06:07:56;;;;;;;22.27;2.55;;;;;;;;;;4957145;28;20483;-86
2022/10/08 06:10:22;;;;;;;18.27;3.03;;;;;;;;;;4960596;28;20887;-86
2022/10/08 06:12:56;;;;;;;18.33;2.70;;;;;;;;;;4973999;28;20097;-86
2022/10/08 06:15:22;;;;;;;16.83;2.45;;;;;;;;;;4959503;28;20070;-86
2022/10/08 06:17:50;;;;;;;25.77;3.60;;;;;;;;;;4954338;28;20549;-85
2022/10/08 06:20:16;;;;;;;16.85;2.80;;;;;;;;;;4976792;28;20036;-86
2022/10/08 06:22:42;;;;;;;11.85;2.70;;;;;;;;;;4955189;28;20034;-85
2022/10/08 06:25:08;;;;;;;16.10;2.75;;;;;;;;;;4977405;28;20320;-86
2022/10/08 06:27:34;;;;;;;13.15;2.22;;;;;;;;;;4956129;28;20039;-86
2022/10/08 06:30:00;;;;;;;20.73;2.92;;;;;;;;;;4959326;28;20038;-86
2022/10/08 06:32:26;;;;;;;22.27;2.85;;;;;;;;;;4957055;28;20097;-86
2022/10/08 06:34:53;;;;;;;18.88;2.63;;;;;;;;;;4973485;28;20039;-86
2022/10/08 06:37:19;;;;;;;18.05;2.67;;;;;;;;;;4972224;28;20066;-86
2022/10/08 06:39:45;;;;;;;20.17;4.72;;;;;;;;;;4972910;28;20034;-86
2022/10/08 06:42:11;;;;;;;24.52;6.90;;;;;;;;;;4971642;28;20044;-85
2022/10/08 06:44:37;;;;;;;14.25;3.25;;;;;;;;;;4975782;28;20041;-86
2022/10/08 06:47:03;;;;;;;15.93;2.33;;;;;;;;;;4971468;28;20035;-86
2022/10/08 06:49:29;;;;;;;10.10;2.30;;;;;;;;;;4973198;28;20635;-86
2022/10/08 06:51:55;;;;;;;9.60;1.63;;;;;;;;;;4987335;28;20041;-86
2022/10/08 06:54:23;;;;;;;14.93;2.67;;;;;;;;;;4990749;28;20059;-86
2022/10/08 06:56:49;;;;;;;17.08;2.55;;;;;;;;;;4960166;28;20393;-86
2022/10/08 06:59:15;;;;;;;10.80;3.13;;;;;;;;;;4958493;28;20121;-84
2022/10/08 07:01:41;;;;;;;10.73;2.30;;;;;;;;;;4970930;28;20240;-85
2022/10/08 07:04:10;;;;;;;11.30;2.45;;;;;;;;;;4971528;28;20117;-86
2022/10/08 07:06:36;;;;;;;6.28;1.10;;;;;;;;;;4975602;28;20495;-86
2022/10/08 07:09:03;;;;;;;3.70;1.08;;;;;;;;;;4983345;28;20038;-86
2022/10/08 07:11:32;;;;;;;5.03;1.48;;;;;;;;;;4985220;28;20542;-86
2022/10/08 07:13:58;;;;;;;5.03;1.33;;;;;;;;;;4971428;28;20062;-86
2022/10/08 07:16:25;;;;;;;12.35;1.60;;;;;;;;;;4972481;28;20154;-86
2022/10/08 07:18:51;;;;;;;8.32;1.50;;;;;;;;;;4971725;28;20597;-86
2022/10/08 07:21:18;;;;;;;12.32;1.40;;;;;;;;;;4984593;28;20026;-86
2022/10/08 07:23:45;;;;;;;14.30;1.80;;;;;;;;;;4986638;28;20034;-86
2022/10/08 07:26:12;;;;;;;13.57;1.52;;;;;;;;;;4971747;28;20030;-86
2022/10/08 07:28:40;;;;;;;9.52;2.30;;;;;;;;;;4970519;28;20039;-86
2022/10/08 07:31:07;;;;;;;8.48;1.63;;;;;;;;;;4982334;28;20030;-86
2022/10/08 07:33:33;;;;;;;11.57;2.38;;;;;;;;;;4987518;28;20045;-86
2022/10/08 07:36:07;;;;;;;7.57;1.60;;;;;;;;;;4968128;28;20038;-87
2022/10/08 07:38:33;;;;;;;5.72;1.98;;;;;;;;;;4955983;28;20383;-86
2022/10/08 07:40:59;;;;;;;8.57;1.98;;;;;;;;;;4956023;28;20121;-85
2022/10/08 07:43:25;;;;;;;9.65;1.50;;;;;;;;;;4978276;28;20045;-86
2022/10/08 07:45:51;;;;;;;6.05;1.40;;;;;;;;;;4954997;28;20034;-86
2022/10/08 07:48:18;;;;;;;7.38;1.60;;;;;;;;;;4971700;28;20034;-86
2022/10/08 07:50:45;;;;;;;5.75;1.48;;;;;;;;;;4968306;28;20082;-86
2022/10/08 07:53:11;;;;;;;10.13;1.80;;;;;;;;;;4986138;28;20065;-86
2022/10/08 07:55:44;;;;;;;21.27;2.40;;;;;;;;;;4960784;28;20065;-85
2022/10/08 07:58:17;;;;;;;10.52;2.03;;;;;;;;;;4986346;28;20086;-85
2022/10/08 08:00:43;;;;;;;9.98;2.13;;;;;;;;;;4958278;28;20446;-86
2022/10/08 08:03:12;;;;;;;12.32;1.65;;;;;;;;;;4973049;28;20627;-86
2022/10/08 08:05:38;;;;;;;5.05;1.50;;;;;;;;;;4975397;28;20030;-86
2022/10/08 08:08:04;;;;;;;5.53;1.88;;;;;;;;;;4954201;28;20121;-85
2022/10/08 08:10:30;;;;;;;12.60;4.50;;;;;;;;;;4960967;28;20030;-86
2022/10/08 08:12:57;;;;;;;3.90;1.45;;;;;;;;;;4991707;28;20031;-85
2022/10/08 08:15:23;;;;;;;9.05;3.08;;;;;;;;;;4987922;28;20391;-86
2022/10/08 08:17:49;;;;;;;8.13;2.40;;;;;;;;;;4963128;28;20046;-86
2022/10/08 08:20:15;;;;;;;13.27;3.65;;;;;;;;;;4955668;28;20058;-86
2022/10/08 08:22:41;;;;;;;8.52;3.65;;;;;;;;;;4985366;28;20581;-86
2022/10/08 08:25:07;;;;;;;4.50;1.92;;;;;;;;;;4968728;28;20065;-85
2022/10/08 08:27:33;;;;;;;8.48;2.47;;;;;;;;;;4969920;28;20070;-85
2022/10/08 08:29:59;;;;;;;9.43;1.63;;;;;;;;;;4957945;28;20065;-85
2022/10/08 08:32:25;;;;;;;4.40;1.42;;;;;;;;;;4968984;28;20094;-85
2022/10/08 08:34:51;;;;;;;6.78;3.33;;;;;;;;;;4946445;28;20042;-85
2022/10/08 08:37:17;;;;;;;5.57;1.55;;;;;;;;;;4947650;28;20037;-85
2022/10/08 08:39:43;;;;;;;6.30;1.42;;;;;;;;;;4969556;28;20121;-86
2022/10/08 08:42:16;;;;;;;6.20;1.27;;;;;;;;;;4970770;28;20129;-86
2022/10/08 08:44:43;;;;;;;3.80;1.25;;;;;;;;;;4970289;28;20626;-86
2022/10/08 08:47:21;;;;;;;4.93;1.33;;;;;;;;;;4969882;28;20491;-85
2022/10/08 08:49:57;;;;;;;5.13;1.65;;;;;;;;;;4988495;28;20564;-85
2022/10/08 08:52:28;;;;;;;6.65;0.98;;;;;;;;;;4971249;28;20181;-85
2022/10/08 08:54:54;;;;;;;7.90;1.58;;;;;;;;;;4987277;28;20046;-86
2022/10/08 08:57:36;;;;;;;3.38;0.80;;;;;;;;;;4951236;28;20042;-86
2022/10/08 09:00:04;;;;;;;8.45;1.90;;;;;;;;;;4964495;28;20450;-86
2022/10/08 09:02:32;;;;;;;9.40;1.55;;;;;;;;;;4989625;28;20034;-86
2022/10/08 09:05:01;;;;;;;4.70;1.73;;;;;;;;;;4972918;28;20034;-86
2022/10/08 09:07:29;;;;;;;9.15;1.63;;;;;;;;;;4965204;28;20394;-85
2022/10/08 09:09:57;;;;;;;8.63;2.00;;;;;;;;;;4975392;28;20033;-86
2022/10/08 09:12:36;;;;;;;10.38;2.00;;;;;;;;;;4990117;28;20071;-86
2022/10/08 09:15:02;;;;;;;12.82;2.30;;;;;;;;;;4979092;28;20049;-86
2022/10/08 09:17:33;;;;;;;3.40;1.90;;;;;;;;;;4964827;28;20030;-86
2022/10/08 09:20:00;;;;;;;11.20;2.10;;;;;;;;;;4968361;28;20518;-85
2022/10/08 09:22:36;;;;;;;11.10;2.10;;;;;;;;;;4970968;28;20107;-86
2022/10/08 09:25:04;;;;;;;4.60;2.17;;;;;;;;;;4971072;28;20474;-86
2022/10/08 09:27:53;;;;;;;6.43;1.70;;;;;;;;;;4966158;28;20172;-86
2022/10/08 09:30:22;;;;;;;5.00;1.92;;;;;;;;;;4967647;28;20569;-86
2022/10/08 09:32:48;;;;;;;11.40;3.33;;;;;;;;;;4986169;28;20026;-86
2022/10/08 09:35:15;;;;;;;10.63;1.58;;;;;;;;;;4971696;28;20030;-86
2022/10/08 09:37:45;;;;;;;11.70;1.52;;;;;;;;;;4953649;28;20498;-86
2022/10/08 09:40:11;;;;;;;7.20;1.42;;;;;;;;;;4970754;28;20038;-87
2022/10/08 09:42:37;;;;;;;7.80;1.38;;;;;;;;;;4968272;28;20023;-86
2022/10/08 09:45:04;;;;;;;7.28;1.70;;;;;;;;;;4964145;28;20387;-85
2022/10/08 09:47:30;;;;;;;9.00;1.45;;;;;;;;;;4968855;28;20038;-86
2022/10/08 09:50:17;;;;;;;12.75;1.60;;;;;;;;;;4968524;28;20031;-85
2022/10/08 09:52:44;;;;;;;7.60;1.70;;;;;;;;;;4964680;28;20038;-85
2022/10/08 09:55:10;;;;;;;10.27;1.83;;;;;;;;;;4989459;28;20059;-87
2022/10/08 09:57:42;;;;;;;5.72;0.90;;;;;;;;;;4968576;28;20030;-86
2022/10/08 10:00:23;;;;;;;10.85;2.88;;;;;;;;;;4969705;28;20083;-86
2022/10/08 10:02:52;;;;;;;11.85;2.40;;;;;;;;;;4982289;28;20050;-86
2022/10/08 10:05:29;;;;;;;12.48;1.70;;;;;;;;;;4971155;28;20041;-86
2022/10/08 10:07:56;;;;;;;10.10;2.92;;;;;;;;;;4982083;28;20029;-86
2022/10/08 10:10:41;;;;;;;8.13;2.25;;;;;;;;;;4983444;28;20037;-86
2022/10/08 10:13:13;;;;;;;6.55;2.53;;;;;;;;;;4968196;28;20057;-86
2022/10/08 10:15:58;;;;;;;5.15;2.00;;;;;;;;;;4968047;28;20418;-86
2022/10/08 10:18:28;;;;;;;6.68;2.20;;;;;;;;;;4982212;28;20030;-86
2022/10/08 10:20:58;;;;;;;13.32;2.33;;;;;;;;;;4990022;28;20469;-86
2022/10/08 10:23:27;;;;;;;6.05;2.33;;;;;;;;;;4966449;28;20446;-86
2022/10/08 10:25:55;;;;;;;9.30;2.70;;;;;;;;;;4971210;28;20041;-87
2022/10/08 10:28:33;;;;;;;5.00;2.30;;;;;;;;;;4969001;28;20502;-86
2022/10/08 10:31:03;;;;;;;6.88;2.72;;;;;;;;;;4988522;28;20034;-86
2022/10/08 10:33:34;;;;;;;10.80;2.50;;;;;;;;;;4970237;28;20465;-86
2022/10/08 10:36:03;;;;;;;8.20;1.92;;;;;;;;;;4969345;28;20045;-86
2022/10/08 10:38:31;;;;;;;10.38;3.20;;;;;;;;;;4966987;28;20030;-86
2022/10/08 10:41:18;;;;;;;7.68;2.60;;;;;;;;;;4970082;28;20022;-86
2022/10/08 10:43:52;;;;;;;5.13;2.65;;;;;;;;;;4984813;28;20034;-86
2022/10/08 10:46:31;;;;;;;7.03;2.20;;;;;;;;;;4969782;28;20096;-86
2022/10/08 10:48:57;;;;;;;4.93;2.00;;;;;;;;;;4982626;28;20375;-86
2022/10/08 10:51:38;;;;;;;6.50;2.35;;;;;;;;;;4971882;28;20542;-86
2022/10/08 10:54:14;;;;;;;10.52;2.90;;;;;;;;;;4974585;28;20031;-87
2022/10/08 10:56:45;;;;;;;12.48;2.53;;;;;;;;;;4973244;28;20057;-86
2022/10/08 10:59:14;;;;;;;8.10;1.48;;;;;;;;;;4975057;28;20093;-86
2022/10/08 11:01:52;;;;;;;1.75;0.82;;;;;;;;;;4975702;28;20030;-86
2022/10/08 11:04:36;;;;;;;3.35;1.00;;;;;;;;;;4991425;28;20076;-86
2022/10/08 11:07:05;;;;;;;6.43;1.00;;;;;;;;;;4972026;28;20413;-86
2022/10/08 11:09:34;;;;;;;3.45;1.40;;;;;;;;;;4973229;28;20521;-86
2022/10/08 11:12:03;;;;;;;4.15;1.42;;;;;;;;;;4969591;28;20034;-86
2022/10/08 11:14:37;;;;;;;9.68;1.60;;;;;;;;;;4974570;28;20070;-87
2022/10/08 11:17:06;;;;;;;10.40;1.73;;;;;;;;;;4989807;28;20100;-86
2022/10/08 11:19:38;;;;;;;9.63;1.98;;;;;;;;;;4972022;28;20696;-86
2022/10/08 11:22:12;;;;;;;8.30;2.85;;;;;;;;;;4973501;28;20446;-86
2022/10/08 11:25:01;;;;;;;11.65;2.22;;;;;;;;;;4973565;28;20418;-86
2022/10/08 11:27:46;;;;;;;7.45;1.15;;;;;;;;;;4965579;28;21043;-86
2022/10/08 11:30:14;;;;;;;7.68;1.10;;;;;;;;;;4973765;28;20077;-86
2022/10/08 11:32:42;;;;;;;12.07;1.55;;;;;;;;;;4985878;28;20549;-87
2022/10/08 11:35:11;;;;;;;9.77;1.50;;;;;;;;;;4971065;28;20062;-86
2022/10/08 11:37:37;;;;;;;11.35;2.20;;;;;;;;;;4978216;28;20034;-87
2022/10/08 11:40:22;;;;;;;14.02;2.30;;;;;;;;;;4987918;28;20030;-86
2022/10/08 11:42:58;;;;;;;12.75;1.70;;;;;;;;;;4972282;28;20391;-86
2022/10/08 11:45:27;;;;;;;11.07;1.63;;;;;;;;;;4973581;28;20026;-87
2022/10/08 11:47:54;;;;;;;7.00;0.93;;;;;;;;;;4970503;28;20097;-86
2022/10/08 11:50:25;;;;;;;9.75;1.27;;;;;;;;;;4971157;28;20022;-86
2022/10/08 11:52:52;;;;;;;7.10;1.38;;;;;;;;;;4988849;28;20475;-86
2022/10/08 11:55:26;;;;;;;8.63;1.50;;;;;;;;;;4980079;28;20043;-89
2022/10/08 11:57:55;;;;;;;10.00;2.50;;;;;;;;;;4977468;28;20041;-89
2022/10/08 12:00:27;;;;;;;5.10;2.17;;;;;;;;;;4971544;28;20034;-90
2022/10/08 12:02:54;;;;;;;8.70;1.88;;;;;;;;;;4985908;28;20042;-89
2022/10/08 12:05:23;;;;;;;7.03;1.70;;;;;;;;;;4987954;28;20288;-90
2022/10/08 12:07:54;;;;;;;5.63;1.50;;;;;;;;;;4974769;28;20027;-89
2022/10/08 12:10:20;;;;;;;8.20;2.00;;;;;;;;;;4974885;28;20042;-90
2022/10/08 12:12:49;;;;;;;8.85;1.85;;;;;;;;;;4975949;28;20030;-91
2022/10/08 12:15:26;;;;;;;6.65;1.80;;;;;;;;;;4974272;28;20026;-90
2022/10/08 12:18:22;;;;;;;11.90;2.38;;;;;;;;;;4972525;28;20034;-90
2022/10/08 12:21:21;;;;;;;4.95;2.08;;;;;;;;;;4984839;28;20038;-89
2022/10/08 12:23:47;;;;;;;9.85;1.70;;;;;;;;;;4964030;28;20602;-89
2022/10/08 12:26:14;;;;;;;4.80;1.38;;;;;;;;;;4960644;28;20058;-89
2022/10/08 12:28:46;;;;;;;3.97;1.23;;;;;;;;;;4973259;28;20043;-89
2022/10/08 12:31:17;;;;;;;12.18;1.73;;;;;;;;;;4973086;28;20027;-90
2022/10/08 12:33:43;;;;;;;12.63;1.48;;;;;;;;;;4976719;28;20070;-89
2022/10/08 12:36:09;;;;;;;10.57;1.98;;;;;;;;;;4958884;28;20034;-89
2022/10/08 12:38:52;;;;;;;8.45;1.45;;;;;;;;;;4988467;28;20045;-90
2022/10/08 12:41:36;;;;;;;10.10;1.15;;;;;;;;;;4990565;28;20096;-90
2022/10/08 12:44:24;;;;;;;8.23;1.35;;;;;;;;;;4990641;28;20033;-90
2022/10/08 12:47:09;;;;;;;10.27;2.08;;;;;;;;;;4989307;28;20034;-90
2022/10/08 12:49:42;;;;;;;12.90;1.90;;;;;;;;;;4973489;28;20038;-90
2022/10/08 12:52:12;;;;;;;7.15;1.38;;;;;;;;;;4967320;28;20134;-90
2022/10/08 12:54:46;;;;;;;8.98;1.65;;;;;;;;;;4970002;28;20597;-89
2022/10/08 12:57:16;;;;;;;10.32;1.77;;;;;;;;;;4976378;28;20138;-89
2022/10/08 12:59:42;;;;;;;8.18;1.30;;;;;;;;;;4974429;28;20034;-90
2022/10/08 13:02:28;;;;;;;11.63;2.20;;;;;;;;;;4976469;28;20274;-90
2022/10/08 13:04:54;;;;;;;8.85;2.47;;;;;;;;;;4985598;28;20513;-89
2022/10/08 13:07:24;;;;;;;10.32;1.27;;;;;;;;;;4972810;28;20022;-90
2022/10/08 13:10:00;;;;;;;8.55;1.17;;;;;;;;;;4970152;28;20045;-89
2022/10/08 13:12:26;;;;;;;7.85;1.08;;;;;;;;;;4987088;28;20023;-90
2022/10/08 13:15:00;;;;;;;4.78;1.30;;;;;;;;;;4971005;28;20022;-90
2022/10/08 13:17:30;;;;;;;7.57;2.45;;;;;;;;;;4976984;28;20061;-89
2022/10/08 13:20:14;;;;;;;8.13;1.50;;;;;;;;;;4991266;28;20042;-89
2022/10/08 13:22:40;;;;;;;13.38;1.73;;;;;;;;;;4991008;28;20656;-90
2022/10/08 13:25:26;;;;;;;5.20;1.00;;;;;;;;;;4975839;28;20030;-89
2022/10/08 13:28:12;;;;;;;5.20;1.50;;;;;;;;;;4973883;28;20030;-90
2022/10/08 13:30:39;;;;;;;2.70;1.08;;;;;;;;;;4973662;28;20031;-90
2022/10/08 13:33:25;;;;;;;4.43;1.25;;;;;;;;;;4975586;28;20072;-90
2022/10/08 13:35:51;;;;;;;;;;;;;;;;;;4970945;28;20034;-90
2022/10/08 13:38:20;;;;;;;1.27;0.52;;;;;;;;;;4984434;28;19959;-90
2022/10/08 13:40:57;;;;;;;1.95;0.70;;;;;;;;;;4988230;28;20121;-90
2022/10/08 13:43:23;;;;;;;4.00;0.82;;;;;;;;;;4986324;28;20035;-90
2022/10/08 13:45:49;;;;;;;4.15;1.35;;;;;;;;;;4953929;28;20042;-89
2022/10/08 13:48:22;;;;;;;3.45;1.20;;;;;;;;;;4958341;28;20022;-89
2022/10/08 13:50:50;;;;;;;8.55;1.08;;;;;;;;;;4971263;28;20308;-90
2022/10/08 13:53:21;;;;;;;7.35;1.40;;;;;;;;;;4974014;28;20026;-90
2022/10/08 13:55:48;;;;;;;6.03;1.45;;;;;;;;;;4970555;28;20061;-90
2022/10/08 13:58:15;;;;;;;5.60;0.95;;;;;;;;;;4990548;28;20057;-90
2022/10/08 14:00:42;;;;;;;5.93;1.42;;;;;;;;;;4990712;28;20045;-89
2022/10/08 14:03:09;;;;;;;9.15;1.17;;;;;;;;;;4970883;28;20042;-89
2022/10/08 14:05:40;;;;;;;6.15;2.22;;;;;;;;;;4975228;28;20038;-91
2022/10/08 14:08:10;;;;;;;6.28;1.42;;;;;;;;;;4969723;28;20085;-90
2022/10/08 14:10:36;;;;;;;12.52;1.58;;;;;;;;;;4989511;28;20053;-90
2022/10/08 14:13:02;;;;;;;5.82;2.08;;;;;;;;;;4953680;28;20110;-89
2022/10/08 14:15:28;;;;;;;6.40;1.50;;;;;;;;;;4957445;28;20041;-90
2022/10/08 14:17:54;;;;;;;5.90;1.50;;;;;;;;;;4955860;28;20152;-89
2022/10/08 14:20:20;;;;;;;7.65;1.40;;;;;;;;;;4987315;28;20128;-89
2022/10/08 14:22:47;;;;;;;5.90;1.10;;;;;;;;;;4956651;28;20538;-89
2022/10/08 14:25:20;;;;;;;9.43;1.52;;;;;;;;;;4977755;28;20034;-89
2022/10/08 14:27:46;;;;;;;4.78;1.17;;;;;;;;;;4978027;28;20117;-89
2022/10/08 14:30:13;;;;;;;9.05;1.20;;;;;;;;;;4973930;28;20419;-89
2022/10/08 14:32:40;;;;;;;5.28;1.17;;;;;;;;;;4976944;28;20030;-89
2022/10/08 14:35:06;;;;;;;5.32;1.42;;;;;;;;;;4976313;28;20023;-90
2022/10/08 14:37:35;;;;;;;10.38;1.75;;;;;;;;;;4970487;28;20046;-91
2022/10/08 14:40:05;;;;;;;7.50;1.65;;;;;;;;;;4989344;28;20042;-89
2022/10/08 14:42:31;;;;;;;8.07;1.00;;;;;;;;;;4986028;28;20078;-91
2022/10/08 14:44:57;;;;;;;3.75;1.08;;;;;;;;;;4975683;28;20449;-92
2022/10/08 14:47:23;;;;;;;5.85;1.92;;;;;;;;;;4979833;28;20026;-90
2022/10/08 14:49:49;;;;;;;5.53;1.77;;;;;;;;;;4960753;28;20170;-91
2022/10/08 14:52:16;;;;;;;5.63;1.05;;;;;;;;;;4978882;28;20026;-91
2022/10/08 14:54:42;;;;;;;8.85;1.30;;;;;;;;;;4975348;28;20046;-92